Time;durP1;ratioP1;P1;durP2;ratioP2;P2;SDS_P1;SDS_P2;PMS_P1;PMS_P2;Temp;Humidity;BMP_temperature;BMP_pressure;BME280_temperature;BME280_humidity;BME280_pressure;Samples;Min_cycle;Max_cycle;Signal;HPM_P1;HPM_P2
2023/06/08 00:02:04;;;;;;;6.60;4.10;;;20.50;99.90;;;20.46;56.33;101240.47;4973033;28;97552;-50
2023/06/08 00:04:33;;;;;;;3.10;2.83;;;20.50;99.90;;;20.45;54.29;101244.13;4948194;28;101505;-51
2023/06/08 00:07:08;;;;;;;5.57;4.00;;;20.50;99.90;;;20.46;56.28;101245.81;4970832;28;97543;-50
2023/06/08 00:09:37;;;;;;;2.60;2.40;;;20.50;99.90;;;20.37;53.51;101241.03;4951351;28;97663;-49
2023/06/08 00:12:05;;;;;;;3.20;2.53;;;20.40;99.90;;;20.37;53.73;101230.31;4968879;28;98893;-49
2023/06/08 00:14:31;;;;;;;4.00;3.57;;;20.40;99.90;;;20.42;53.50;101232.75;4967858;28;97502;-51
2023/06/08 00:16:57;;;;;;;4.80;3.47;;;20.50;99.90;;;20.43;54.11;101232.66;4973654;28;97106;-49
2023/06/08 00:19:25;;;;;;;3.17;2.87;;;20.50;99.90;;;20.44;53.58;101226.31;4977889;28;97204;-49
2023/06/08 00:21:50;;;;;;;3.87;3.17;;;20.50;99.90;;;20.47;56.76;101228.78;4984566;28;97622;-48
2023/06/08 00:24:19;;;;;;;7.13;3.43;;;20.50;99.90;;;20.47;59.21;101220.75;4978002;28;97256;-48
2023/06/08 00:26:45;;;;;;;5.30;3.30;;;20.50;99.90;;;20.46;55.72;101228.88;4983502;28;96512;-49
2023/06/08 00:29:11;;;;;;;3.47;3.13;;;20.50;99.90;;;20.44;57.52;101220.97;4973206;28;116312;-50
2023/06/08 00:31:40;;;;;;;4.43;3.70;;;20.40;99.90;;;20.44;60.35;101220.97;4967344;28;96486;-49
2023/06/08 00:34:06;;;;;;;6.23;3.93;;;20.40;99.90;;;20.43;57.90;101219.25;4975868;28;97186;-50
2023/06/08 00:36:31;;;;;;;5.47;3.70;;;20.40;99.90;;;20.44;60.93;101226.31;4980168;28;97831;-49
2023/06/08 00:38:57;;;;;;;4.67;3.87;;;20.40;99.90;;;20.42;59.99;101228.25;4972830;28;96583;-49
2023/06/08 00:41:23;;;;;;;5.00;3.10;;;20.40;99.90;;;20.41;58.22;101226.53;4979514;28;97154;-53
2023/06/08 00:43:49;;;;;;;4.73;4.10;;;20.40;99.90;;;20.40;59.49;101229.28;4973338;28;97300;-51
2023/06/08 00:46:17;;;;;;;3.87;3.07;;;20.40;99.90;;;20.38;55.53;101226.69;4982092;28;102054;-49
2023/06/08 00:48:43;;;;;;;3.47;2.87;;;20.40;99.90;;;20.38;56.62;101232.03;4977142;28;101759;-52
2023/06/08 00:51:11;;;;;;;4.47;3.67;;;20.40;99.90;;;20.37;55.87;101224.13;4973642;28;96654;-50
2023/06/08 00:53:37;;;;;;;3.20;2.40;;;20.40;99.90;;;20.35;53.91;101226.91;4964451;28;96822;-49
2023/06/08 00:56:06;;;;;;;4.17;3.17;;;20.30;99.90;;;20.35;56.60;101221.53;4982520;28;96777;-49
2023/06/08 00:58:33;;;;;;;5.20;3.30;;;20.40;99.90;;;20.36;60.13;101217.91;4962090;28;97003;-50
2023/06/08 01:01:01;;;;;;;3.37;3.07;;;20.30;99.90;;;20.34;54.51;101214.47;4966856;28;96494;-49
2023/06/08 01:03:38;;;;;;;5.00;3.20;;;20.30;99.90;;;20.33;56.77;101217.25;4979997;28;96729;-50
2023/06/08 01:06:08;;;;;;;4.87;3.53;;;20.30;99.90;;;20.33;58.54;101218.09;4980416;28;97181;-51
2023/06/08 01:09:01;;;;;;;4.20;2.87;;;20.30;99.90;;;20.32;57.72;101211.03;4964385;28;97356;-48
2023/06/08 01:11:48;;;;;;;9.23;3.87;;;20.30;99.90;;;20.27;56.10;101217.69;4949569;28;96948;-49
2023/06/08 01:14:54;;;;;;;3.60;3.30;;;20.20;99.90;;;20.27;60.09;101215.84;4980272;28;96806;-48
2023/06/08 01:17:25;;;;;;;5.07;3.70;;;20.20;99.90;;;20.23;59.30;101214.31;4967743;28;97085;-52
2023/06/08 01:20:21;;;;;;;3.83;3.43;;;20.20;99.90;;;20.15;58.66;101217.53;4987233;28;97632;-49
2023/06/08 01:23:34;;;;;;;5.67;3.63;;;20.00;99.90;;;20.14;60.33;101212.28;4959493;28;101491;-48
2023/06/08 01:26:02;;;;;;;5.90;2.83;;;20.00;99.90;;;20.10;55.91;101210.75;4974145;28;98420;-51
2023/06/08 01:28:30;;;;;;;5.07;4.33;;;20.00;99.90;;;20.07;60.75;101216.31;4975510;28;97316;-49
2023/06/08 01:30:58;;;;;;;9.17;3.70;;;19.90;99.90;;;20.05;61.19;101212.88;4977570;28;97412;-48
2023/06/08 01:33:28;;;;;;;5.37;3.30;;;19.90;99.90;;;20.08;57.42;101218.03;4965570;28;97184;-49
2023/06/08 01:36:34;;;;;;;4.63;3.50;;;20.00;99.90;;;20.06;55.32;101214.59;4971589;28;97172;-48
2023/06/08 01:39:10;;;;;;;4.90;3.70;;;20.00;99.90;;;20.10;59.69;101221.47;4949088;28;97454;-48
2023/06/08 01:41:45;;;;;;;6.60;4.40;;;20.00;99.90;;;20.07;59.86;101217.16;4969968;28;97038;-51
2023/06/08 01:44:15;;;;;;;3.73;2.90;;;20.00;99.90;;;20.07;54.55;101221.66;4970015;28;97119;-49
2023/06/08 01:46:49;;;;;;;6.57;4.40;;;20.00;99.90;;;20.06;56.85;101214.59;4936669;28;97015;-49
2023/06/08 01:49:15;;;;;;;3.53;3.20;;;20.00;99.90;;;20.07;54.61;101219.00;4964111;28;97212;-48
2023/06/08 01:51:42;;;;;;;5.40;4.10;;;20.00;99.90;;;20.07;60.39;101224.34;4971843;28;103348;-48
2023/06/08 01:54:08;;;;;;;5.17;4.03;;;20.00;99.90;;;20.05;58.45;101216.41;4955199;28;97497;-48
2023/06/08 01:56:36;;;;;;;3.57;3.00;;;20.00;99.90;;;19.99;55.68;101213.31;4972696;28;97428;-52
2023/06/08 01:59:03;;;;;;;5.77;4.20;;;19.90;99.90;;;20.00;60.07;101212.34;4975456;28;97665;-48
2023/06/08 02:01:28;;;;;;;5.60;4.00;;;19.90;99.90;;;20.02;55.80;101207.75;4972789;28;98669;-50
2023/06/08 02:03:54;;;;;;;5.93;4.70;;;19.90;99.90;;;20.01;58.71;101196.16;4968507;28;110158;-51
2023/06/08 02:06:20;;;;;;;6.40;4.23;;;19.90;99.90;;;19.98;59.57;101207.09;4963468;28;103707;-53
2023/06/08 02:08:46;;;;;;;6.07;4.87;;;19.90;99.90;;;19.92;58.24;101202.97;4976227;28;97279;-48
2023/06/08 02:11:12;;;;;;;4.00;2.93;;;19.80;99.90;;;19.94;55.49;101204.69;4970897;28;97140;-49
2023/06/08 02:13:42;;;;;;;4.10;3.57;;;19.80;99.90;;;19.95;55.32;101198.38;4968555;28;102990;-49
2023/06/08 02:16:09;;;;;;;3.07;2.50;;;19.80;99.90;;;19.96;56.44;101202.78;4974238;28;97523;-52
2023/06/08 02:18:40;;;;;;;5.20;4.20;;;19.80;99.90;;;19.99;57.25;101202.59;4966596;28;97264;-51
2023/06/08 02:21:07;;;;;;;3.00;2.30;;;19.90;99.90;;;19.99;54.47;101197.25;4977283;28;97671;-47
2023/06/08 02:23:33;;;;;;;7.60;4.17;;;19.90;99.90;;;19.95;60.14;101193.88;4968788;28;97716;-50
2023/06/08 02:25:59;;;;;;;5.20;3.77;;;19.90;99.90;;;19.96;54.57;101197.41;4978575;28;96962;-49
2023/06/08 02:28:24;;;;;;;5.20;3.63;;;19.80;99.90;;;19.99;54.81;101191.88;4968959;28;96759;-52
2023/06/08 02:30:50;;;;;;;4.10;3.33;;;19.90;99.90;;;19.99;55.33;101198.09;4976676;28;111668;-51
2023/06/08 02:33:16;;;;;;;4.93;4.17;;;19.90;99.90;;;20.01;56.91;101203.34;4971368;28;97657;-55
2023/06/08 02:35:42;;;;;;;5.47;4.27;;;19.90;99.90;;;20.01;56.12;101196.16;4979171;28;96758;-50
2023/06/08 02:38:08;;;;;;;3.60;3.30;;;19.90;99.90;;;19.98;55.00;101201.75;4976811;28;98597;-54
2023/06/08 02:40:35;;;;;;;2.70;2.13;;;19.90;99.90;;;20.00;53.98;101190.91;4965643;28;97464;-50
2023/06/08 02:43:01;;;;;;;5.80;4.20;;;19.90;99.90;;;20.00;58.34;101196.28;4972200;28;100127;-49
2023/06/08 02:45:27;;;;;;;4.70;3.80;;;19.90;99.90;;;19.96;57.35;101202.78;4976486;28;98163;-52
2023/06/08 02:47:52;;;;;;;3.07;2.60;;;19.80;99.90;;;19.96;54.31;101202.78;4972589;28;98461;-52
2023/06/08 02:50:18;;;;;;;2.57;2.37;;;19.80;99.90;;;19.96;54.19;101208.13;4974523;28;103516;-49
2023/06/08 02:52:44;;;;;;;2.70;2.40;;;19.80;99.90;;;19.91;54.52;101201.25;4968565;28;110723;-49
2023/06/08 02:55:10;;;;;;;6.27;4.20;;;19.80;99.90;;;19.93;57.89;101203.84;4976702;28;111855;-50
2023/06/08 02:57:36;;;;;;;6.63;4.57;;;19.80;99.90;;;19.91;59.06;101201.25;4971557;28;104779;-51
2023/06/08 03:00:08;;;;;;;9.03;4.30;;;19.80;99.90;;;19.90;58.57;101199.56;4966982;28;97347;-51
2023/06/08 03:02:35;;;;;;;5.97;4.63;;;19.80;99.90;;;19.86;59.60;101198.03;4964902;28;97545;-50
2023/06/08 03:05:04;;;;;;;4.50;3.23;;;19.70;99.90;;;19.77;55.16;101193.28;4971228;28;97220;-48
2023/06/08 03:07:33;;;;;;;6.93;4.53;;;19.60;99.90;;;19.83;54.93;101194.72;4969468;28;97268;-51
2023/06/08 03:10:00;;;;;;;6.47;4.67;;;19.60;99.90;;;19.81;59.21;101201.97;4970310;28;97298;-50
2023/06/08 03:12:25;;;;;;;5.47;3.93;;;19.60;99.90;;;19.79;56.14;101202.06;4946341;28;96820;-51
2023/06/08 03:14:53;;;;;;;5.97;4.50;;;19.60;99.90;;;19.81;55.92;101199.28;4967420;28;96918;-51
2023/06/08 03:17:19;;;;;;;5.37;4.53;;;19.60;99.90;;;19.79;59.22;101196.72;4970799;28;96994;-49
2023/06/08 03:19:45;;;;;;;2.47;2.27;;;19.70;99.90;;;19.77;54.95;101197.78;4977641;28;97697;-54
2023/06/08 03:22:11;;;;;;;3.60;2.80;;;19.60;99.90;;;19.66;55.25;101195.78;4974430;28;103039;-48
2023/06/08 03:24:37;;;;;;;5.77;5.03;;;19.50;99.90;;;19.60;59.53;101190.84;4972101;28;97055;-49
2023/06/08 03:27:06;;;;;;;7.17;4.63;;;19.40;99.90;;;19.66;58.57;101189.59;4968761;28;97205;-53
2023/06/08 03:29:32;;;;;;;3.17;2.47;;;19.50;99.90;;;19.64;55.47;101197.72;4968183;28;98604;-54
2023/06/08 03:31:58;;;;;;;7.23;4.97;;;19.40;99.90;;;19.57;57.12;101196.41;4970109;28;96581;-53
2023/06/08 03:34:25;;;;;;;5.90;4.60;;;19.30;99.90;;;19.49;61.38;101193.31;4973451;28;97332;-51
2023/06/08 03:36:52;;;;;;;7.57;4.70;;;19.30;99.90;;;19.54;60.64;101191.22;4966907;28;97119;-51
2023/06/08 03:39:18;;;;;;;7.83;4.43;;;19.30;99.90;;;19.47;61.68;101193.44;4967620;28;97655;-53
2023/06/08 03:41:45;;;;;;;4.53;3.77;;;19.30;99.90;;;19.53;56.26;101189.53;4971813;28;103425;-53
2023/06/08 03:44:10;;;;;;;4.97;3.00;;;19.30;99.90;;;19.48;57.34;101191.63;4974814;28;96732;-51
2023/06/08 03:46:36;;;;;;;3.77;3.07;;;19.30;99.90;;;19.56;55.95;101189.34;4965184;28;103682;-50
2023/06/08 03:49:02;;;;;;;5.60;3.60;;;19.30;99.90;;;19.54;56.11;101191.22;4969822;28;113811;-49
2023/06/08 03:51:28;;;;;;;5.17;4.50;;;19.30;99.90;;;19.58;60.03;101184.75;4969219;28;100047;-49
2023/06/08 03:53:54;;;;;;;2.97;2.60;;;19.40;99.90;;;19.59;55.72;101189.13;4978902;28;97319;-51
2023/06/08 03:56:20;;;;;;;6.83;4.90;;;19.40;99.90;;;19.59;59.65;101186.47;4970697;28;97339;-51
2023/06/08 03:58:46;;;;;;;7.10;5.23;;;19.40;99.90;;;19.61;57.46;101187.22;4968192;28;97607;-52
2023/06/08 04:01:15;;;;;;;2.67;2.47;;;19.40;99.90;;;19.62;55.74;101183.59;4976622;28;106047;-48
2023/06/08 04:03:41;;;;;;;7.47;5.07;;;19.40;99.90;;;19.60;60.41;101186.38;4964149;28;96755;-49
2023/06/08 04:06:11;;;;;;;7.43;4.97;;;19.40;99.90;;;19.53;58.85;101179.69;4971653;28;96991;-50
2023/06/08 04:08:44;;;;;;;6.67;4.70;;;19.30;99.90;;;19.55;56.20;101176.94;4948005;28;97890;-50
2023/06/08 04:11:11;;;;;;;4.10;2.80;;;19.30;99.90;;;19.56;56.81;101184.84;4960190;28;97256;-52
2023/06/08 04:13:41;;;;;;;5.90;4.77;;;19.30;99.90;;;19.59;58.09;101183.78;4970085;28;97546;-51
2023/06/08 04:16:09;;;;;;;4.93;4.20;;;19.40;99.90;;;19.61;55.71;101188.06;4975115;28;97625;-50
2023/06/08 04:18:42;;;;;;;7.47;5.43;;;19.40;99.90;;;19.65;59.15;101182.50;4974919;28;97248;-49
2023/06/08 04:21:08;;;;;;;6.67;5.07;;;19.50;99.90;;;19.66;59.33;101179.75;4983200;28;97658;-50
2023/06/08 04:23:35;;;;;;;7.27;5.03;;;19.50;99.90;;;19.64;61.14;101180.81;4976310;28;97113;-53
2023/06/08 04:26:08;;;;;;;8.43;5.73;;;19.50;99.90;;;19.64;60.53;101181.66;4977942;28;96958;-49
2023/06/08 04:28:35;;;;;;;7.43;5.40;;;19.50;99.90;;;19.57;57.04;101181.22;4961479;28;97176;-51
2023/06/08 04:31:01;;;;;;;6.97;5.10;;;19.40;99.90;;;19.59;57.28;101183.78;4955056;28;96699;-51
2023/06/08 04:33:28;;;;;;;7.77;4.83;;;19.40;99.90;;;19.64;58.65;101180.81;4972029;28;97102;-49
2023/06/08 04:35:54;;;;;;;6.90;5.47;;;19.50;99.90;;;19.63;59.21;101185.28;4979573;28;96935;-51
2023/06/08 04:38:20;;;;;;;7.20;5.07;;;19.50;99.90;;;19.60;61.48;101183.69;4979148;28;96754;-59
2023/06/08 04:40:54;;;;;;;9.20;5.33;;;19.40;99.90;;;19.62;59.42;101188.94;4980825;28;96792;-50
2023/06/08 04:43:21;;;;;;;9.80;5.67;;;19.40;99.90;;;19.60;60.82;101190.84;4976001;28;97013;-49
2023/06/08 04:45:59;;;;;;;7.50;5.47;;;19.40;99.90;;;19.60;61.13;101185.50;4980199;28;96815;-51
2023/06/08 04:48:26;;;;;;;4.47;3.03;;;19.40;99.90;;;19.59;56.08;101194.50;4973021;28;97463;-52
2023/06/08 04:50:52;;;;;;;3.70;2.80;;;19.40;99.90;;;19.63;55.56;101193.31;4975325;28;97740;-54
2023/06/08 04:53:21;;;;;;;8.33;5.33;;;19.50;99.90;;;19.64;62.92;101195.03;4972502;28;97232;-52
2023/06/08 04:55:48;;;;;;;9.13;4.77;;;19.50;99.90;;;19.62;62.94;101188.94;4977933;28;96735;-51
2023/06/08 04:58:14;;;;;;;7.50;5.70;;;19.50;99.90;;;19.61;59.60;101192.56;4969394;28;96871;-49
2023/06/08 05:00:40;;;;;;;9.43;5.77;;;19.40;99.90;;;19.56;64.19;101195.56;4969378;28;97161;-54
2023/06/08 05:03:06;;;;;;;9.60;6.20;;;19.40;99.90;;;19.58;62.44;101188.28;4973410;28;97078;-53
2023/06/08 05:05:32;;;;;;;7.17;5.20;;;19.40;99.90;;;19.57;64.23;101188.38;4975635;28;97754;-51
2023/06/08 05:07:58;;;;;;;8.77;6.50;;;19.40;99.90;;;19.57;63.49;101185.72;4980187;22;101098;-76
2023/06/08 05:12:59;;;;;;;9.50;5.97;;;19.40;99.90;;;19.58;64.77;101200.81;4737456;26;97608;-51
2023/06/08 05:15:26;;;;;;;12.77;5.93;;;19.40;99.90;;;19.53;65.47;101190.38;4975517;28;96523;-48
2023/06/08 05:17:52;;;;;;;9.97;6.20;;;19.40;99.90;;;19.53;65.29;101189.53;4979269;28;96831;-49
2023/06/08 05:20:20;;;;;;;8.03;5.83;;;19.30;99.90;;;19.52;65.91;101187.78;4977972;28;97075;-50
2023/06/08 05:22:46;;;;;;;8.40;5.77;;;19.40;99.90;;;19.51;66.39;101191.41;4971449;28;97327;-50
2023/06/08 05:25:11;;;;;;;8.20;5.67;;;19.30;99.90;;;19.49;67.09;101191.50;4979559;28;96812;-53
2023/06/08 05:27:37;;;;;;;11.73;6.03;;;19.30;99.90;;;19.48;67.10;101188.94;4970054;28;97672;-50
2023/06/08 05:30:04;;;;;;;7.27;5.73;;;19.30;99.90;;;19.48;66.98;101194.28;4977914;28;98223;-51
2023/06/08 05:32:30;;;;;;;7.40;5.67;;;19.30;99.90;;;19.50;65.00;101192.38;4971842;28;96988;-49
2023/06/08 05:34:56;;;;;;;7.43;5.47;;;19.30;99.90;;;19.55;63.07;101192.97;4980970;28;98929;-49
2023/06/08 05:37:21;;;;;;;7.00;4.97;;;19.40;99.90;;;19.60;66.35;101185.50;4974799;28;97232;-58
2023/06/08 05:39:48;;;;;;;9.67;5.97;;;19.50;99.90;;;19.63;65.09;101192.47;4976135;28;111642;-51
2023/06/08 05:42:14;;;;;;;7.03;5.23;;;19.50;99.90;;;19.66;62.78;101185.09;4979047;28;96585;-49
2023/06/08 05:44:40;;;;;;;7.13;5.63;;;19.50;99.90;;;19.67;65.73;101189.47;4964571;28;96835;-52
2023/06/08 05:47:06;;;;;;;10.37;6.13;;;19.60;99.90;;;19.68;65.87;101177.84;4971741;28;97143;-50
2023/06/08 05:49:32;;;;;;;7.60;5.33;;;19.60;99.90;;;19.73;66.14;101182.88;4975824;28;97567;-50
2023/06/08 05:51:57;;;;;;;9.57;5.67;;;19.60;99.90;;;19.69;65.33;101186.72;4961344;28;96876;-49
2023/06/08 05:54:23;;;;;;;8.03;6.03;;;19.60;99.90;;;19.69;66.50;101189.41;4976695;28;110082;-50
2023/06/08 05:56:50;;;;;;;8.73;5.37;;;19.60;99.90;;;19.68;65.83;101183.19;4972939;28;101771;-50
2023/06/08 05:59:16;;;;;;;14.10;6.00;;;19.60;99.90;;;19.69;65.56;101179.56;4974674;28;98162;-50
2023/06/08 06:01:42;;;;;;;10.33;5.30;;;19.60;99.90;;;19.77;64.35;101187.94;4969168;28;97594;-48
2023/06/08 06:04:08;;;;;;;10.80;5.37;;;19.70;99.90;;;19.80;64.71;101182.38;4975939;28;97479;-49
2023/06/08 06:06:35;;;;;;;8.73;5.07;;;19.70;99.90;;;19.83;64.36;101182.19;4973274;28;97193;-48
2023/06/08 06:09:02;;;;;;;7.23;4.90;;;19.80;99.90;;;19.87;63.32;101189.06;4975602;28;97277;-51
2023/06/08 06:11:28;;;;;;;9.83;5.10;;;19.80;99.90;;;19.92;60.94;101180.72;4973197;28;97277;-47
2023/06/08 06:13:53;;;;;;;5.53;4.83;;;19.90;99.90;;;19.97;62.82;101189.31;4974540;28;96875;-51
2023/06/08 06:16:19;;;;;;;9.70;5.47;;;19.90;99.90;;;19.96;63.69;101192.91;4979095;28;97602;-48
2023/06/08 06:18:46;;;;;;;8.77;6.00;;;19.90;99.90;;;20.00;63.24;101177.53;4973223;28;97362;-51
2023/06/08 06:21:13;;;;;;;8.50;5.23;;;20.00;99.90;;;20.02;64.01;101195.22;4973942;28;97161;-50
2023/06/08 06:23:39;;;;;;;7.50;4.93;;;20.00;99.90;;;20.05;63.62;101191.47;4971653;28;97213;-50
2023/06/08 06:26:05;;;;;;;7.90;5.07;;;20.00;99.90;;;20.07;63.23;101194.88;4974716;28;97413;-50
2023/06/08 06:28:31;;;;;;;9.27;4.97;;;20.00;99.90;;;20.09;63.51;101195.66;4970544;28;97166;-48
2023/06/08 06:30:58;;;;;;;6.70;5.00;;;20.10;99.90;;;20.10;63.22;101190.19;4972657;28;96911;-50
2023/06/08 06:33:23;;;;;;;6.40;5.17;;;20.10;99.90;;;20.14;63.12;101190.84;4974647;28;98764;-55
2023/06/08 06:35:50;;;;;;;9.13;5.47;;;20.10;99.90;;;20.16;63.49;101186.25;4982402;28;97099;-51
2023/06/08 06:38:16;;;;;;;13.33;5.20;;;20.10;99.90;;;20.18;62.88;101192.34;4979063;28;97409;-48
2023/06/08 06:40:42;;;;;;;10.83;4.93;;;20.10;99.90;;;20.20;62.46;101201.16;4976937;28;97236;-48
2023/06/08 06:43:08;;;;;;;7.90;5.57;;;20.20;99.90;;;20.22;62.37;101201.91;4977446;28;97037;-49
2023/06/08 06:45:34;;;;;;;5.13;4.60;;;20.20;99.90;;;20.23;62.24;101194.72;4957511;28;97376;-48
2023/06/08 06:48:00;;;;;;;8.47;5.70;;;20.20;99.90;;;20.25;62.40;101199.00;4978296;28;96973;-49
2023/06/08 06:50:26;;;;;;;6.33;5.03;;;20.20;99.90;;;20.25;62.42;101196.31;4980242;28;97054;-48
2023/06/08 06:52:52;;;;;;;9.23;4.37;;;20.30;99.90;;;20.27;62.59;101202.47;4980424;28;97044;-52
2023/06/08 06:55:17;;;;;;;8.23;4.30;;;20.30;99.90;;;20.31;62.35;101198.59;4979715;28;97276;-48
2023/06/08 06:57:44;;;;;;;5.33;4.20;;;20.30;99.90;;;20.31;61.98;101203.97;4960980;28;97002;-48
2023/06/08 07:00:10;;;;;;;6.97;4.50;;;20.30;99.90;;;20.33;61.45;101207.41;4983436;28;97029;-50
2023/06/08 07:02:40;;;;;;;7.10;5.33;;;20.30;99.90;;;20.36;62.17;101199.13;4978207;28;97187;-50
2023/06/08 07:05:07;;;;;;;5.53;4.37;;;20.40;99.90;;;20.39;61.55;101196.25;4980209;28;97373;-49
2023/06/08 07:07:34;;;;;;;7.13;4.80;;;20.40;99.90;;;20.40;62.02;101187.28;4976002;28;97220;-48
2023/06/08 07:10:00;;;;;;;7.50;4.47;;;20.50;99.90;;;20.43;61.73;101192.44;4978091;28;97768;-48
2023/06/08 07:12:28;;;;;;;6.00;4.33;;;20.40;99.90;;;20.45;61.58;101190.53;4974778;28;97052;-50
2023/06/08 07:14:53;;;;;;;8.10;5.03;;;20.50;99.90;;;20.48;61.48;101179.59;5349542;22;98114;-47
2023/06/08 07:17:19;;;;;;;6.87;4.57;;;20.50;99.90;;;20.51;61.25;101173.16;4968756;28;97586;-51
2023/06/08 07:19:46;;;;;;;5.97;4.30;;;20.50;99.90;;;20.54;61.21;101172.06;4951534;28;97172;-49
2023/06/08 07:22:12;;;;;;;5.73;4.27;;;20.60;99.90;;;20.56;60.52;101183.56;4968573;28;96830;-47
2023/06/08 07:24:38;;;;;;;5.10;4.30;;;20.60;99.90;;;20.57;60.64;101180.78;4963174;28;96999;-50
2023/06/08 07:27:04;;;;;;;5.87;4.37;;;20.60;99.90;;;20.59;59.19;101180.69;4984796;28;97329;-49
2023/06/08 07:29:29;;;;;;;5.67;4.23;;;20.60;99.90;;;20.62;59.16;101188.50;4992684;28;97154;-49
2023/06/08 07:31:57;;;;;;;5.70;4.37;;;20.70;99.90;;;20.65;61.23;101178.41;4987428;28;96499;-52
2023/06/08 07:34:22;;;;;;;5.90;4.13;;;20.70;99.90;;;20.67;59.52;101183.66;4992067;28;97437;-51
2023/06/08 07:36:48;;;;;;;10.17;4.83;;;20.70;99.90;;;20.71;60.74;101179.81;4989895;28;111392;-48
2023/06/08 07:39:14;;;;;;;4.50;3.83;;;20.80;99.90;;;20.74;60.26;101174.25;4999323;28;97072;-45
2023/06/08 07:41:40;;;;;;;5.67;3.97;;;20.80;99.90;;;20.77;59.70;101179.38;4993034;28;97863;-49
2023/06/08 07:44:06;;;;;;;3.83;3.40;;;20.80;99.90;;;20.79;59.33;101177.44;4991711;28;97827;-52
2023/06/08 07:46:32;;;;;;;4.83;3.73;;;20.90;99.90;;;20.77;57.81;101187.44;4984765;28;97303;-46
2023/06/08 07:48:58;;;;;;;3.77;3.37;;;20.80;99.90;;;20.78;56.21;101181.97;4998599;28;97070;-49
2023/06/08 07:51:23;;;;;;;5.03;4.10;;;20.90;99.90;;;20.83;58.51;101181.66;4990781;28;97259;-47
2023/06/08 07:53:49;;;;;;;5.37;4.00;;;20.90;99.90;;;20.85;58.17;101186.91;4991783;28;97470;-52
2023/06/08 07:56:15;;;;;;;7.60;3.87;;;20.90;99.90;;;20.92;59.87;101183.66;4991814;28;96818;-50
2023/06/08 07:58:41;;;;;;;6.23;3.97;;;21.00;99.90;;;20.91;56.32;101181.97;4995823;28;96929;-51
2023/06/08 08:01:07;;;;;;;3.30;3.00;;;21.10;99.90;;;20.78;55.80;101173.06;5004842;28;96953;-47
2023/06/08 08:03:40;;;;;;;5.27;3.47;;;20.90;99.90;;;20.79;54.60;101177.44;4978704;28;97266;-48
2023/06/08 08:06:06;;;;;;;4.50;3.13;;;20.90;99.90;;;20.49;55.00;101181.31;4997843;28;98228;-53
2023/06/08 08:08:32;;;;;;;4.70;3.80;;;20.70;99.90;;;20.52;55.16;101179.38;4991046;28;96811;-48
2023/06/08 08:10:58;;;;;;;4.23;3.00;;;20.70;99.90;;;20.55;54.87;101173.81;4998157;28;96962;-49
2023/06/08 08:13:24;;;;;;;4.67;3.30;;;20.70;99.90;;;20.68;56.79;101174.66;4989600;28;98732;-51
2023/06/08 08:15:50;;;;;;;3.20;2.80;;;20.80;99.90;;;20.67;54.43;101172.94;4990247;28;97209;-52
2023/06/08 08:18:15;;;;;;;4.83;2.67;;;20.80;99.90;;;20.58;54.51;101169.09;4989909;28;97156;-50
2023/06/08 08:20:41;;;;;;;3.27;2.63;;;20.80;99.90;;;20.60;53.96;101166.31;4993206;28;97064;-50
2023/06/08 08:23:08;;;;;;;3.17;2.60;;;20.80;99.90;;;20.52;54.17;101165.97;4993983;28;106504;-53
2023/06/08 08:25:34;;;;;;;3.03;2.73;;;20.70;99.90;;;20.45;54.49;101174.44;4991280;28;97596;-51
2023/06/08 08:28:00;;;;;;;3.73;2.70;;;20.60;99.90;;;20.39;54.29;101166.78;4991875;28;96837;-49
2023/06/08 08:30:27;;;;;;;3.20;2.90;;;20.60;99.90;;;20.35;54.18;101162.59;4988531;28;99492;-50
2023/06/08 08:32:52;;;;;;;2.87;2.50;;;20.50;99.90;;;20.32;54.38;101162.81;4987286;28;102286;-51
2023/06/08 08:35:18;;;;;;;4.77;3.57;;;20.50;99.90;;;20.47;54.47;101151.06;4991788;28;97490;-50
2023/06/08 08:37:45;;;;;;;4.03;3.57;;;20.60;99.90;;;20.71;56.51;101158.38;4987070;28;97417;-46
2023/06/08 08:40:13;;;;;;;3.60;3.03;;;20.80;99.90;;;20.70;54.36;101156.66;4988949;28;97347;-52
2023/06/08 08:42:46;;;;;;;3.97;3.30;;;20.90;99.90;;;20.75;56.52;101154.50;4982529;28;96993;-51
2023/06/08 08:45:13;;;;;;;8.27;4.07;;;20.90;99.90;;;20.88;55.73;101158.06;4993325;28;96984;-51
2023/06/08 08:47:40;;;;;;;3.53;3.23;;;21.00;99.90;;;20.81;53.85;101154.06;4974898;28;97149;-50
2023/06/08 08:50:09;;;;;;;3.67;2.63;;;21.00;99.90;;;20.64;54.25;101151.72;4984952;28;97284;-51
2023/06/08 08:52:38;;;;;;;3.27;2.90;;;20.90;99.90;;;20.53;53.74;101151.59;4967911;28;97229;-48
2023/06/08 08:55:06;;;;;;;3.73;3.00;;;20.80;99.90;;;20.48;53.82;101152.78;4975858;28;97184;-48
2023/06/08 08:57:32;;;;;;;3.60;2.87;;;20.70;99.90;;;20.36;53.77;101148.25;4990557;28;97067;-48
2023/06/08 08:59:58;;;;;;;4.33;2.87;;;20.60;99.90;;;20.36;54.30;101144.69;4989886;28;105306;-49
2023/06/08 09:02:25;;;;;;;3.37;3.07;;;20.60;99.90;;;20.53;56.63;101143.56;4990901;28;97383;-49
2023/06/08 09:04:54;;;;;;;4.00;3.47;;;20.60;99.90;;;20.65;54.27;101142.72;4983752;28;97133;-51
2023/06/08 09:07:24;;;;;;;5.77;3.73;;;20.80;99.90;;;20.90;59.02;101142.72;4993635;28;97259;-49
2023/06/08 09:10:19;;;;;;;4.37;3.03;;;21.00;99.90;;;20.81;53.67;101132.63;4963772;28;97012;-48
2023/06/08 09:12:50;;;;;;;3.10;2.60;;;21.00;99.90;;;20.66;53.77;101133.69;4988280;28;98515;-48
2023/06/08 09:15:37;;;;;;;3.73;3.33;;;20.90;99.90;;;20.60;53.69;101139.50;4967533;28;97945;-47
2023/06/08 09:18:18;;;;;;;3.10;2.67;;;20.80;99.90;;;20.40;53.55;101133.69;4988618;28;96818;-51
2023/06/08 09:20:45;;;;;;;2.80;2.50;;;20.70;99.90;;;20.41;53.93;101137.22;4966607;28;97339;-50
2023/06/08 09:26:56;;;;;;;4.13;3.40;;;20.60;99.90;;;20.52;54.37;101128.44;4988113;28;101535;-47
2023/06/08 09:29:40;;;;;;;5.13;2.83;;;20.70;99.90;;;20.58;54.22;101125.38;4987807;28;97093;-50
2023/06/08 09:32:09;;;;;;;3.83;3.20;;;20.70;99.90;;;20.61;54.47;101130.50;4988987;28;97567;-49
2023/06/08 09:34:55;;;;;;;5.53;2.80;;;20.70;99.90;;;20.59;53.97;101132.44;4983289;28;97277;-49
2023/06/08 09:37:36;;;;;;;4.27;3.00;;;20.70;99.90;;;20.87;56.82;101118.81;4985262;28;97433;-49
2023/06/08 09:40:04;;;;;;;5.07;3.03;;;21.00;99.90;;;20.65;54.02;101115.91;4978582;28;98238;-49
2023/06/08 09:42:41;;;;;;;3.13;2.83;;;20.90;99.90;;;20.47;53.74;101113.56;4970795;28;97576;-47
2023/06/08 09:45:10;;;;;;;3.73;3.00;;;20.70;99.90;;;20.32;53.88;101114.59;4986527;28;96627;-47
2023/06/08 09:47:36;;;;;;;3.90;2.90;;;20.60;99.90;;;20.15;54.30;101117.59;4978388;28;97600;-48
2023/06/08 09:50:05;;;;;;;3.97;3.47;;;20.40;99.90;;;20.18;54.28;101112.00;4991148;28;98948;-46
2023/06/08 09:52:32;;;;;;;2.90;2.43;;;20.40;99.90;;;20.13;54.29;101109.66;4988844;28;97112;-49
2023/06/08 09:54:58;;;;;;;6.13;3.00;;;20.40;99.90;;;20.18;54.44;101117.38;4970092;28;97392;-48
2023/06/08 09:57:27;;;;;;;5.20;3.40;;;20.40;99.90;;;20.05;55.65;101105.78;4968067;28;97418;-46
2023/06/08 10:00:17;;;;;;;4.20;2.97;;;20.30;99.90;;;19.99;55.72;101122.28;4992035;28;96770;-47
2023/06/08 10:03:16;;;;;;;6.60;3.20;;;20.30;99.90;;;20.04;55.25;101109.41;4967740;28;97274;-46
2023/06/08 10:05:45;;;;;;;6.53;3.20;;;20.30;99.90;;;20.01;55.85;101104.28;4994644;28;97222;-46
2023/06/08 10:08:16;;;;;;;3.47;2.60;;;20.30;99.90;;;19.99;55.03;101106.22;4991347;28;97123;-46
2023/06/08 10:10:43;;;;;;;6.87;3.27;;;20.30;99.90;;;20.01;56.07;101098.91;4993410;28;99623;-48
2023/06/08 10:13:10;;;;;;;3.63;3.30;;;20.30;99.90;;;20.03;54.91;101097.84;5005231;28;96918;-47
2023/06/08 10:15:37;;;;;;;7.47;3.57;;;20.30;99.90;;;20.03;55.10;101095.16;4989722;28;97466;-46
2023/06/08 10:18:03;;;;;;;4.17;3.57;;;20.30;99.90;;;20.20;55.36;101099.38;4981836;28;97378;-46
2023/06/08 10:20:30;;;;;;;4.03;3.40;;;20.40;99.90;;;20.06;54.71;101094.94;5000466;28;96594;-47
2023/06/08 10:22:58;;;;;;;6.27;4.07;;;20.30;99.90;;;20.10;55.33;101092.91;4999635;28;96930;-49
2023/06/08 10:25:28;;;;;;;3.97;3.10;;;20.30;99.90;;;20.06;54.93;101096.78;5001920;28;96564;-47